Time;durP1;ratioP1;P1;durP2;ratioP2;P2;SDS_P1;SDS_P2;PMS_P1;PMS_P2;Temp;Humidity;BMP_temperature;BMP_pressure;BME280_temperature;BME280_humidity;BME280_pressure;Samples;Min_cycle;Max_cycle;Signal;HPM_P1;HPM_P2
2021/04/10 00:00:56;;;;;;;3.38;1.70;;;20.70;40.90;;;;;;5092117;28;20052;-45
2021/04/10 00:03:23;;;;;;;3.13;1.60;;;20.70;40.90;;;;;;5091708;28;20024;-41
2021/04/10 00:05:49;;;;;;;3.58;1.40;;;20.60;40.80;;;;;;5090332;28;20027;-41
2021/04/10 00:08:14;;;;;;;2.40;1.42;;;20.60;40.80;;;;;;5094369;28;20856;-43
2021/04/10 00:10:40;;;;;;;4.20;1.75;;;20.60;40.80;;;;;;5094981;28;20035;-45
2021/04/10 00:13:06;;;;;;;3.10;1.48;;;20.60;40.80;;;;;;5086183;28;20035;-45
2021/04/10 00:15:32;;;;;;;2.45;1.65;;;20.60;40.80;;;;;;5095415;28;20423;-46
2021/04/10 00:17:58;;;;;;;3.63;1.70;;;20.60;40.80;;;;;;5094580;28;20059;-46
2021/04/10 00:20:25;;;;;;;2.78;1.60;;;20.60;40.80;;;;;;5095256;28;20032;-43
2021/04/10 00:22:50;;;;;;;2.83;1.20;;;20.60;40.70;;;;;;5095342;28;20032;-45
2021/04/10 00:25:19;;;;;;;4.22;1.73;;;20.60;40.70;;;;;;5094052;28;20030;-44
2021/04/10 00:27:45;;;;;;;2.70;1.42;;;20.60;40.70;;;;;;5095285;28;20030;-39
2021/04/10 00:30:13;;;;;;;1.55;0.95;;;20.60;40.70;;;;;;5094107;28;20048;-41
2021/04/10 00:32:39;;;;;;;2.65;1.80;;;20.60;40.70;;;;;;5095011;28;20056;-41
2021/04/10 00:35:06;;;;;;;3.40;1.65;;;20.60;40.80;;;;;;5093472;28;20453;-37
2021/04/10 00:37:32;;;;;;;4.43;1.98;;;20.60;40.70;;;;;;5094785;28;20024;-38
2021/04/10 00:39:58;;;;;;;2.08;1.20;;;20.60;40.70;;;;;;5093965;28;20488;-39
2021/04/10 00:42:24;;;;;;;2.25;1.38;;;20.60;40.70;;;;;;5094420;28;20032;-39
2021/04/10 00:44:49;;;;;;;2.33;1.52;;;20.60;40.60;;;;;;5094817;28;20027;-39
2021/04/10 00:47:15;;;;;;;2.45;1.17;;;20.60;40.60;;;;;;5094181;28;20511;-41
2021/04/10 00:49:41;;;;;;;3.47;1.50;;;20.60;40.60;;;;;;5094340;28;20040;-41
2021/04/10 00:52:09;;;;;;;4.35;1.45;;;20.60;40.60;;;;;;5093803;28;20504;-40
2021/04/10 00:54:38;;;;;;;3.13;1.50;;;20.60;40.60;;;;;;5094383;28;20024;-42
2021/04/10 00:57:05;;;;;;;3.20;1.10;;;20.60;40.60;;;;;;5085627;28;20024;-42
2021/04/10 00:59:31;;;;;;;4.60;1.25;;;20.60;40.60;;;;;;5094560;28;20034;-43
2021/04/10 01:01:58;;;;;;;2.08;1.30;;;20.60;40.60;;;;;;5094180;28;20083;-41
2021/04/10 01:04:25;;;;;;;2.33;1.33;;;20.50;40.50;;;;;;5094856;28;20028;-42
2021/04/10 01:06:50;;;;;;;2.70;1.20;;;20.60;40.60;;;;;;5093566;28;20031;-45
2021/04/10 01:09:16;;;;;;;3.78;1.45;;;20.50;40.50;;;;;;5093444;28;20032;-44
2021/04/10 01:11:44;;;;;;;2.80;1.33;;;20.50;40.50;;;;;;5093929;28;20377;-42
2021/04/10 01:14:34;;;;;;;2.63;1.50;;;20.60;40.50;;;;;;5093262;28;20039;-39
2021/04/10 01:17:15;;;;;;;2.13;1.38;;;20.60;40.50;;;;;;5093691;28;20028;-42
2021/04/10 01:20:11;;;;;;;3.70;1.33;;;20.50;40.40;;;;;;5092257;28;20020;-43
2021/04/10 01:23:18;;;;;;;2.35;1.38;;;20.50;40.40;;;;;;5094132;28;20042;-46
2021/04/10 01:25:55;;;;;;;1.98;1.05;;;20.50;40.40;;;;;;5065478;28;20048;-42
2021/04/10 01:28:45;;;;;;;2.17;1.40;;;20.50;40.30;;;;;;5093219;28;20038;-42
2021/04/10 01:31:13;;;;;;;3.33;1.30;;;20.50;40.40;;;;;;5093136;28;20541;-45
2021/04/10 01:33:44;;;;;;;1.77;1.00;;;20.50;40.30;;;;;;5093386;28;20032;-39
2021/04/10 01:36:12;;;;;;;1.55;1.30;;;20.50;40.30;;;;;;5093102;28;20024;-47
2021/04/10 01:38:42;;;;;;;1.63;0.90;;;20.50;41.00;;;;;;5093534;28;20024;-46
2021/04/10 01:41:09;;;;;;;3.15;1.30;;;20.50;40.30;;;;;;5092485;28;20028;-42
2021/04/10 01:43:37;;;;;;;2.65;1.20;;;20.50;40.30;;;;;;5093467;28;20020;-40
2021/04/10 01:46:03;;;;;;;2.50;1.23;;;20.50;40.20;;;;;;5092861;28;20028;-46
2021/04/10 01:48:31;;;;;;;1.73;1.23;;;20.50;40.30;;;;;;5085203;28;20036;-39
2021/04/10 01:51:00;;;;;;;4.03;1.23;;;20.50;40.20;;;;;;5091647;28;20044;-48
2021/04/10 01:53:26;;;;;;;2.38;1.10;;;20.60;40.20;;;;;;5093336;28;20024;-40
2021/04/10 01:55:53;;;;;;;3.33;1.10;;;20.50;40.20;;;;;;5093278;28;20492;-39
2021/04/10 01:58:19;;;;;;;2.40;1.23;;;20.50;40.10;;;;;;5091942;28;20028;-42
2021/04/10 02:00:46;;;;;;;3.55;1.23;;;20.50;40.10;;;;;;5084232;28;20124;-38
2021/04/10 02:03:17;;;;;;;1.77;0.95;;;20.50;40.10;;;;;;5092472;28;20028;-42
2021/04/10 02:05:43;;;;;;;1.85;1.02;;;20.50;40.10;;;;;;5091971;28;20059;-40
2021/04/10 02:08:12;;;;;;;2.17;1.20;;;20.50;40.10;;;;;;5092560;28;20089;-38
2021/04/10 02:10:39;;;;;;;2.17;1.23;;;20.60;40.10;;;;;;5092686;28;20385;-39
2021/04/10 02:13:06;;;;;;;1.48;1.02;;;20.60;40.10;;;;;;5091709;28;20028;-39
2021/04/10 02:15:32;;;;;;;2.10;1.10;;;20.50;40.00;;;;;;5092918;28;20028;-41
2021/04/10 02:17:58;;;;;;;2.17;1.00;;;20.60;40.10;;;;;;5092164;28;20085;-47
2021/04/10 02:20:24;;;;;;;3.13;1.40;;;20.60;40.10;;;;;;5091989;28;20489;-39
2021/04/10 02:22:52;;;;;;;2.47;1.30;;;20.50;40.00;;;;;;5092695;28;20016;-38
2021/04/10 02:25:19;;;;;;;1.90;1.02;;;20.60;40.10;;;;;;5092019;28;20027;-41
2021/04/10 02:27:45;;;;;;;4.32;1.20;;;20.60;40.10;;;;;;5092086;28;20385;-39
2021/04/10 02:30:12;;;;;;;1.55;1.10;;;20.60;40.00;;;;;;5091797;28;20106;-43
2021/04/10 02:33:00;;;;;;;2.45;1.02;;;20.60;40.10;;;;;;5091372;28;20389;-39
2021/04/10 02:35:33;;;;;;;2.28;1.15;;;20.60;40.00;;;;;;5092418;28;20036;-41
2021/04/10 02:37:59;;;;;;;1.67;1.20;;;20.60;40.00;;;;;;5091524;28;20024;-48
2021/04/10 02:40:33;;;;;;;1.30;1.00;;;20.60;40.00;;;;;;5084132;28;20031;-41
2021/04/10 02:43:00;;;;;;;1.23;0.88;;;20.60;40.00;;;;;;5091031;28;20463;-50
2021/04/10 02:45:27;;;;;;;1.67;0.82;;;20.60;40.00;;;;;;5091692;28;20397;-44
2021/04/10 02:47:58;;;;;;;1.55;0.93;;;20.60;40.00;;;;;;5092474;28;20020;-41
2021/04/10 02:50:27;;;;;;;3.58;1.10;;;20.60;40.00;;;;;;5091771;28;20043;-37
2021/04/10 02:52:55;;;;;;;1.55;0.98;;;20.60;40.00;;;;;;5092225;28;20488;-47
2021/04/10 02:55:56;;;;;;;2.05;0.90;;;20.60;40.00;;;;;;5091068;28;20492;-43
2021/04/10 02:58:23;;;;;;;1.95;1.02;;;20.60;39.90;;;;;;5031479;28;20047;-45
2021/04/10 03:00:52;;;;;;;1.40;1.00;;;20.60;40.00;;;;;;5091745;28;20047;-45
2021/04/10 03:03:19;;;;;;;2.20;1.00;;;20.60;39.90;;;;;;5091356;28;20035;-41
2021/04/10 03:05:46;;;;;;;2.67;1.17;;;20.60;39.90;;;;;;5091921;28;20013;-45
2021/04/10 03:08:20;;;;;;;2.53;1.20;;;20.60;39.90;;;;;;5091368;28;20541;-41
2021/04/10 03:10:52;;;;;;;2.33;1.25;;;20.60;39.90;;;;;;5092160;28;20028;-42
2021/04/10 03:13:18;;;;;;;1.52;0.95;;;20.60;39.90;;;;;;5091293;28;20240;-41
2021/04/10 03:15:49;;;;;;;1.90;0.95;;;20.60;39.90;;;;;;5091539;28;20024;-45
2021/04/10 03:18:16;;;;;;;1.55;0.90;;;20.60;39.90;;;;;;5090937;28;20396;-47
2021/04/10 03:20:43;;;;;;;2.63;0.80;;;20.60;39.90;;;;;;5091539;28;20123;-44
2021/04/10 03:23:10;;;;;;;1.38;0.82;;;20.60;39.90;;;;;;5091157;28;20028;-40
2021/04/10 03:25:36;;;;;;;2.00;0.85;;;20.70;39.90;;;;;;5091618;28;20423;-41
2021/04/10 03:28:02;;;;;;;2.38;1.10;;;20.60;39.80;;;;;;5090400;28;20032;-48
2021/04/10 03:30:29;;;;;;;1.52;0.90;;;20.60;39.80;;;;;;5090618;28;20397;-42
2021/04/10 03:32:54;;;;;;;1.58;1.00;;;20.60;39.90;;;;;;5091535;28;20046;-40
2021/04/10 03:35:26;;;;;;;1.40;0.70;;;20.70;39.90;;;;;;5090662;28;20028;-40
2021/04/10 03:37:53;;;;;;;2.28;1.00;;;20.70;39.90;;;;;;5091793;28;20163;-40
2021/04/10 03:40:19;;;;;;;1.70;0.90;;;20.70;39.90;;;;;;5089901;28;20033;-44
2021/04/10 03:42:45;;;;;;;2.55;0.93;;;20.70;39.90;;;;;;5089957;28;20055;-39
2021/04/10 03:45:13;;;;;;;3.08;1.10;;;20.70;39.90;;;;;;5090648;28;20465;-41
2021/04/10 03:47:38;;;;;;;3.10;0.95;;;20.70;39.90;;;;;;5091192;28;20020;-40
2021/04/10 03:50:06;;;;;;;2.30;0.95;;;20.70;39.90;;;;;;5090688;28;20035;-39
2021/04/10 03:52:32;;;;;;;3.55;1.10;;;20.70;39.90;;;;;;5091440;28;20122;-45
2021/04/10 03:54:57;;;;;;;1.05;0.73;;;20.70;39.90;;;;;;5091575;28;20034;-40
2021/04/10 03:57:23;;;;;;;1.23;0.80;;;20.70;39.90;;;;;;5090030;28;20095;-41
2021/04/10 03:59:49;;;;;;;2.05;1.10;;;20.70;39.90;;;;;;5090963;28;20607;-40
2021/04/10 04:02:15;;;;;;;1.92;0.90;;;20.70;39.90;;;;;;5089196;28;20408;-38
2021/04/10 04:04:40;;;;;;;3.42;0.95;;;20.70;39.90;;;;;;5091587;28;20020;-44
2021/04/10 04:07:08;;;;;;;1.83;0.80;;;20.70;39.90;;;;;;5090172;28;20036;-39
2021/04/10 04:09:33;;;;;;;2.75;0.80;;;20.70;39.90;;;;;;5091203;28;20034;-41
2021/04/10 04:11:59;;;;;;;3.03;1.20;;;20.70;39.90;;;;;;5091384;28;20032;-50
2021/04/10 04:14:25;;;;;;;1.52;0.80;;;20.70;39.90;;;;;;5090245;28;20052;-43
2021/04/10 04:16:50;;;;;;;2.08;0.90;;;20.70;39.90;;;;;;5091127;28;20521;-40
2021/04/10 04:19:16;;;;;;;2.03;0.90;;;20.70;39.90;;;;;;5090224;28;20454;-42
2021/04/10 04:21:43;;;;;;;1.38;0.80;;;20.70;39.90;;;;;;5091370;28;20032;-47
2021/04/10 04:24:08;;;;;;;2.35;0.77;;;20.70;39.90;;;;;;5090640;28;20131;-40
2021/04/10 04:26:34;;;;;;;1.88;0.90;;;20.70;39.90;;;;;;5090289;28;20501;-48
2021/04/10 04:29:00;;;;;;;1.30;0.80;;;20.70;39.90;;;;;;5091100;28;20536;-44
2021/04/10 04:31:26;;;;;;;1.67;1.00;;;20.70;39.90;;;;;;5090338;28;20040;-40
2021/04/10 04:33:51;;;;;;;1.05;0.70;;;20.70;39.90;;;;;;5090928;28;20031;-43
2021/04/10 04:36:17;;;;;;;1.52;0.70;;;20.70;39.80;;;;;;5090362;28;20069;-44
2021/04/10 04:38:42;;;;;;;1.70;0.80;;;20.70;39.90;;;;;;5091081;28;20050;-41
2021/04/10 04:41:08;;;;;;;1.70;1.10;;;20.70;39.90;;;;;;5090075;28;20071;-46
2021/04/10 04:43:34;;;;;;;3.08;0.95;;;20.70;39.90;;;;;;5094424;28;20031;-39
2021/04/10 04:46:00;;;;;;;1.77;0.90;;;20.80;40.60;;;;;;5093860;28;20020;-48
2021/04/10 04:48:25;;;;;;;1.20;0.80;;;20.70;39.90;;;;;;5094059;28;20035;-44
2021/04/10 04:50:51;;;;;;;1.23;0.77;;;20.70;39.90;;;;;;5093481;28;20028;-43
2021/04/10 04:53:17;;;;;;;1.48;0.98;;;20.80;39.90;;;;;;5093731;28;20032;-40
2021/04/10 04:55:42;;;;;;;1.23;0.90;;;20.70;39.90;;;;;;5087014;28;20028;-40
2021/04/10 04:58:08;;;;;;;3.75;0.95;;;20.80;40.00;;;;;;5091613;28;20028;-36
2021/04/10 05:00:34;;;;;;;2.22;0.90;;;20.70;39.90;;;;;;5092059;28;20051;-39
2021/04/10 05:03:00;;;;;;;3.88;1.00;;;20.70;40.00;;;;;;5092170;28;20062;-48
2021/04/10 05:05:26;;;;;;;2.33;0.77;;;20.80;40.10;;;;;;5091535;28;20475;-40
2021/04/10 05:07:51;;;;;;;3.65;0.77;;;20.80;40.10;;;;;;5092124;28;20032;-43
2021/04/10 05:10:17;;;;;;;2.45;0.90;;;20.80;40.20;;;;;;5091753;28;20376;-37
2021/04/10 05:12:43;;;;;;;2.22;1.15;;;20.80;40.20;;;;;;5092299;28;20036;-41
2021/04/10 05:15:09;;;;;;;3.65;0.90;;;20.80;40.20;;;;;;5091358;28;20088;-43
2021/04/10 05:17:35;;;;;;;3.65;0.88;;;20.80;40.20;;;;;;5092012;28;20032;-44
2021/04/10 05:20:00;;;;;;;3.92;1.08;;;20.80;40.30;;;;;;5091328;28;20028;-47
2021/04/10 05:22:26;;;;;;;4.05;0.90;;;20.80;40.40;;;;;;5091398;28;20757;-40
2021/04/10 05:24:52;;;;;;;4.95;0.70;;;20.80;40.40;;;;;;5092059;28;20028;-42
2021/04/10 05:27:17;;;;;;;1.92;0.70;;;20.80;40.40;;;;;;5089437;28;20118;-39
2021/04/10 05:29:43;;;;;;;6.13;1.00;;;20.80;40.50;;;;;;5092041;28;20067;-41
2021/04/10 05:32:09;;;;;;;6.38;0.88;;;20.80;40.50;;;;;;5090643;28;20051;-39
2021/04/10 05:34:36;;;;;;;3.55;1.02;;;20.80;40.50;;;;;;5090524;28;20066;-42
2021/04/10 05:37:03;;;;;;;2.13;0.80;;;20.80;40.50;;;;;;5088601;28;20587;-49
2021/04/10 05:39:30;;;;;;;1.35;0.70;;;20.80;40.60;;;;;;5091314;28;20028;-38
2021/04/10 05:41:55;;;;;;;5.38;2.45;;;20.80;41.20;;;;;;5091460;28;20044;-42
2021/04/10 05:44:21;;;;;;;3.38;1.00;;;20.80;40.60;;;;;;5089608;28;20149;-39
2021/04/10 05:46:46;;;;;;;3.80;1.00;;;20.80;40.60;;;;;;5089054;28;20024;-42
2021/04/10 05:49:12;;;;;;;2.33;0.77;;;20.80;40.70;;;;;;5090766;28;20069;-43
2021/04/10 05:51:38;;;;;;;2.10;0.80;;;20.80;40.70;;;;;;5090977;28;20028;-40
2021/04/10 05:54:03;;;;;;;4.40;0.77;;;20.80;40.60;;;;;;5089376;28;20037;-48
2021/04/10 05:56:29;;;;;;;3.78;1.00;;;20.80;40.60;;;;;;5090920;28;20032;-41
2021/04/10 05:58:55;;;;;;;5.78;1.00;;;20.80;40.70;;;;;;5091204;28;20028;-42
2021/04/10 06:01:20;;;;;;;5.32;1.00;;;20.80;40.70;;;;;;5090565;28;20040;-47
2021/04/10 06:03:46;;;;;;;2.70;1.00;;;20.80;40.70;;;;;;5089990;28;20036;-43
2021/04/10 06:06:12;;;;;;;2.30;0.82;;;20.80;40.70;;;;;;5090445;28;20028;-42
2021/04/10 06:08:38;;;;;;;5.25;0.70;;;20.80;40.60;;;;;;5090815;28;20433;-43
2021/04/10 06:11:04;;;;;;;3.22;0.90;;;20.80;40.60;;;;;;5089626;28;20031;-46
2021/04/10 06:13:29;;;;;;;3.47;0.70;;;20.80;40.60;;;;;;5090890;28;20541;-40
2021/04/10 06:15:55;;;;;;;5.18;0.90;;;20.80;40.60;;;;;;5090703;28;20020;-40
2021/04/10 06:18:21;;;;;;;3.03;0.82;;;20.80;40.60;;;;;;5090023;28;20122;-40
2021/04/10 06:20:46;;;;;;;2.42;0.82;;;20.80;40.70;;;;;;5090629;28;20040;-39
2021/04/10 06:23:12;;;;;;;4.05;1.00;;;20.80;40.70;;;;;;5089769;28;20024;-39
2021/04/10 06:25:38;;;;;;;1.75;0.90;;;20.80;40.70;;;;;;5089432;28;20032;-41
2021/04/10 06:28:04;;;;;;;3.38;1.00;;;20.80;40.70;;;;;;5089918;28;20032;-45
2021/04/10 06:30:30;;;;;;;2.45;0.73;;;20.80;40.70;;;;;;5090600;28;20035;-43
2021/04/10 06:32:56;;;;;;;3.28;0.82;;;20.80;40.70;;;;;;5090127;28;20533;-40
2021/04/10 06:35:22;;;;;;;4.43;0.77;;;20.80;40.80;;;;;;5089626;28;20038;-41
2021/04/10 06:37:47;;;;;;;4.88;1.10;;;20.80;40.80;;;;;;5090793;28;20108;-44
2021/04/10 06:40:13;;;;;;;4.50;0.85;;;20.80;40.80;;;;;;5089662;28;20070;-44
2021/04/10 06:42:41;;;;;;;5.05;0.93;;;20.80;40.80;;;;;;5090374;28;20111;-41
2021/04/10 06:45:08;;;;;;;2.40;0.77;;;20.80;40.90;;;;;;5088641;28;20035;-42
2021/04/10 06:47:34;;;;;;;2.25;0.90;;;20.80;40.90;;;;;;5087645;28;20028;-39
2021/04/10 06:50:02;;;;;;;4.93;0.95;;;20.80;40.90;;;;;;5090410;28;20103;-43
2021/04/10 06:52:30;;;;;;;3.38;1.20;;;20.90;40.90;;;;;;5089616;28;20024;-40
2021/04/10 06:55:23;;;;;;;2.08;0.80;;;20.90;40.90;;;;;;5090366;28;20024;-41
2021/04/10 06:58:08;;;;;;;3.60;0.85;;;20.80;40.90;;;;;;5085566;28;20040;-40
2021/04/10 07:00:35;;;;;;;3.42;0.80;;;20.80;40.90;;;;;;5089470;28;20048;-38
2021/04/10 07:03:02;;;;;;;3.85;0.80;;;20.80;40.90;;;;;;5088034;28;20036;-43
2021/04/10 07:05:29;;;;;;;3.75;1.20;;;20.90;41.00;;;;;;5088193;28;20032;-41
2021/04/10 07:07:55;;;;;;;6.43;1.33;;;20.90;41.00;;;;;;5089465;28;20524;-41
2021/04/10 07:10:22;;;;;;;4.25;0.98;;;20.90;41.00;;;;;;5087793;28;20039;-43
2021/04/10 07:12:47;;;;;;;3.72;1.00;;;20.90;41.00;;;;;;5090203;28;20032;-38
2021/04/10 07:15:15;;;;;;;2.03;1.05;;;20.90;41.00;;;;;;5088802;28;20141;-41
2021/04/10 07:17:41;;;;;;;4.22;1.13;;;20.90;41.00;;;;;;5089910;28;20603;-45
2021/04/10 07:20:27;;;;;;;3.10;1.45;;;20.90;41.00;;;;;;5089098;28;20170;-43
2021/04/10 07:22:59;;;;;;;1.73;0.80;;;20.90;41.10;;;;;;5089343;28;20020;-40
2021/04/10 07:25:25;;;;;;;3.60;0.73;;;20.90;41.10;;;;;;5087674;28;20059;-44
2021/04/10 07:27:52;;;;;;;4.13;0.95;;;20.90;41.10;;;;;;5089878;28;20036;-45
2021/04/10 07:30:18;;;;;;;2.33;0.70;;;20.90;41.10;;;;;;5089085;28;20074;-42
2021/04/10 07:32:43;;;;;;;1.55;0.73;;;20.90;41.10;;;;;;5089589;28;20028;-41
2021/04/10 07:35:13;;;;;;;6.63;1.00;;;20.90;41.10;;;;;;5088660;28;20465;-44
2021/04/10 07:37:46;;;;;;;3.58;1.00;;;20.90;41.10;;;;;;5086524;28;20031;-48
2021/04/10 07:40:12;;;;;;;1.73;1.13;;;20.90;41.10;;;;;;5088303;28;20031;-44
2021/04/10 07:42:40;;;;;;;1.85;0.70;;;20.90;41.10;;;;;;5089469;28;20032;-43
2021/04/10 07:45:22;;;;;;;3.20;0.63;;;20.90;41.10;;;;;;5088823;28;20059;-47
2021/04/10 07:47:48;;;;;;;5.07;0.77;;;20.90;41.10;;;;;;5088956;28;20024;-44
2021/04/10 07:50:17;;;;;;;2.28;0.43;;;20.90;41.10;;;;;;5088510;28;20028;-44
2021/04/10 07:52:44;;;;;;;2.85;0.73;;;20.80;41.20;;;;;;5089203;28;20077;-42
2021/04/10 07:55:29;;;;;;;6.10;1.08;;;20.90;41.30;;;;;;5088926;28;20032;-41
2021/04/10 07:58:15;;;;;;;3.05;0.73;;;20.90;41.40;;;;;;5089223;28;20032;-41
2021/04/10 08:00:41;;;;;;;4.07;0.73;;;20.90;41.40;;;;;;5086800;28;20048;-49
2021/04/10 08:03:24;;;;;;;4.57;1.30;;;20.90;41.70;;;;;;5088387;28;20039;-48
2021/04/10 08:05:49;;;;;;;4.45;0.70;;;20.60;40.00;;;;;;5088378;28;20021;-40
2021/04/10 08:08:23;;;;;;;2.47;0.80;;;20.40;39.00;;;;;;5088218;28;20065;-43
2021/04/10 08:11:06;;;;;;;7.63;0.90;;;20.40;40.00;;;;;;5088497;28;20425;-40
2021/04/10 08:13:32;;;;;;;4.35;1.15;;;20.50;40.50;;;;;;5089112;28;20066;-42
2021/04/10 08:16:10;;;;;;;2.38;0.70;;;20.70;40.70;;;;;;5089555;28;20021;-42
2021/04/10 08:18:41;;;;;;;4.10;0.73;;;20.80;40.80;;;;;;5092230;28;20032;-43
2021/04/10 08:21:07;;;;;;;1.63;0.60;;;20.80;40.90;;;;;;5092430;28;20036;-42
2021/04/10 08:23:33;;;;;;;3.17;0.88;;;20.80;41.00;;;;;;5092943;28;20460;-42
2021/04/10 08:25:58;;;;;;;4.00;1.02;;;20.80;41.10;;;;;;5092897;28;20028;-42
2021/04/10 08:28:24;;;;;;;5.15;0.82;;;20.80;41.20;;;;;;5092348;28;20039;-40
2021/04/10 08:30:50;;;;;;;4.30;1.52;;;20.90;41.30;;;;;;5092832;28;20053;-41
2021/04/10 08:33:15;;;;;;;4.05;0.85;;;20.90;41.50;;;;;;5092432;28;20024;-41
2021/04/10 08:35:41;;;;;;;4.93;0.90;;;20.90;41.70;;;;;;5092986;28;20052;-40
2021/04/10 08:38:08;;;;;;;3.95;1.00;;;20.90;41.90;;;;;;5092127;28;20059;-46
2021/04/10 08:40:35;;;;;;;2.22;0.80;;;20.90;42.20;;;;;;5092385;28;20028;-42
2021/04/10 08:43:01;;;;;;;5.13;0.88;;;20.90;42.60;;;;;;5093000;28;20381;-38
2021/04/10 08:45:36;;;;;;;7.13;1.13;;;20.80;42.90;;;;;;5091692;28;20067;-43
2021/04/10 08:48:04;;;;;;;5.90;1.08;;;20.90;43.20;;;;;;5077054;28;20078;-46
2021/04/10 08:50:33;;;;;;;4.78;1.25;;;20.90;43.40;;;;;;5093502;28;20032;-41
2021/04/10 08:53:05;;;;;;;7.07;1.48;;;21.00;43.50;;;;;;5093169;28;20024;-45
2021/04/10 08:55:32;;;;;;;3.42;0.75;;;21.00;43.40;;;;;;5094036;28;20088;-41
2021/04/10 08:57:57;;;;;;;6.13;1.30;;;20.90;43.50;;;;;;5094956;28;20488;-43
2021/04/10 09:00:26;;;;;;;5.68;1.10;;;20.90;43.50;;;;;;5092871;28;20154;-45
2021/04/10 09:02:54;;;;;;;2.72;0.90;;;20.90;43.90;;;;;;5086037;28;20140;-41
2021/04/10 09:05:20;;;;;;;5.15;0.90;;;20.90;44.00;;;;;;5092928;28;20039;-43
2021/04/10 09:07:48;;;;;;;5.43;1.00;;;20.90;44.00;;;;;;5093989;28;20031;-41
2021/04/10 09:10:29;;;;;;;7.53;0.90;;;20.90;44.20;;;;;;5092492;28;20465;-47
2021/04/10 09:13:21;;;;;;;5.60;1.63;;;20.90;44.10;;;;;;5093628;28;20028;-38
2021/04/10 09:15:47;;;;;;;2.10;0.70;;;20.90;44.10;;;;;;5091872;28;20035;-40
2021/04/10 09:18:14;;;;;;;6.20;1.90;;;20.90;44.20;;;;;;5083944;28;20028;-39
2021/04/10 09:20:46;;;;;;;3.83;1.05;;;20.90;44.10;;;;;;5093989;28;20028;-42
2021/04/10 09:23:17;;;;;;;4.05;0.80;;;20.90;44.20;;;;;;5092495;28;20043;-43
2021/04/10 09:25:45;;;;;;;5.80;1.20;;;20.90;44.10;;;;;;5093336;28;20469;-39
2021/04/10 09:28:11;;;;;;;6.47;0.98;;;20.90;44.10;;;;;;5092826;28;20047;-41
2021/04/10 09:30:38;;;;;;;3.38;0.90;;;20.90;44.10;;;;;;5093428;28;20036;-42
2021/04/10 09:33:28;;;;;;;4.22;0.80;;;20.90;44.10;;;;;;5093426;28;20036;-47
2021/04/10 09:35:55;;;;;;;3.97;0.68;;;20.90;44.00;;;;;;5093515;28;20027;-38
2021/04/10 09:38:43;;;;;;;5.57;0.77;;;20.90;44.00;;;;;;5092520;28;20119;-40
2021/04/10 09:41:10;;;;;;;6.88;0.80;;;20.90;44.00;;;;;;5092051;28;20024;-42
2021/04/10 09:43:58;;;;;;;3.25;0.88;;;20.90;43.90;;;;;;5093330;28;20035;-41
2021/04/10 09:46:36;;;;;;;5.82;1.20;;;20.90;44.10;;;;;;5089105;28;20082;-43
2021/04/10 09:49:02;;;;;;;8.30;0.95;;;20.80;43.40;;;;;;5093309;28;20020;-38
2021/04/10 09:51:29;;;;;;;6.13;0.90;;;20.90;43.90;;;;;;5092538;28;20137;-41
2021/04/10 09:53:55;;;;;;;7.05;1.15;;;20.90;43.90;;;;;;5093082;28;20051;-43
2021/04/10 09:56:22;;;;;;;1.80;0.90;;;20.90;43.80;;;;;;5092142;28;20059;-41
2021/04/10 09:58:52;;;;;;;3.55;0.77;;;20.90;43.90;;;;;;5093370;28;20055;-40
2021/04/10 10:01:20;;;;;;;3.22;1.70;;;20.90;43.80;;;;;;5091705;28;20051;-48
2021/04/10 10:03:47;;;;;;;6.13;1.98;;;20.90;44.20;;;;;;5092979;28;20024;-47
2021/04/10 10:06:18;;;;;;;6.97;2.20;;;20.90;44.50;;;;;;5085844;28;20443;-44
2021/04/10 10:08:44;;;;;;;5.78;1.80;;;20.90;44.90;;;;;;5092903;28;20036;-42
2021/04/10 10:11:11;;;;;;;3.80;1.42;;;20.90;44.70;;;;;;5091522;28;20035;-41
2021/04/10 10:13:38;;;;;;;6.85;2.05;;;20.90;44.50;;;;;;5093089;28;20028;-46
2021/04/10 10:16:04;;;;;;;6.80;2.25;;;20.90;44.50;;;;;;5090629;28;20036;-45
2021/04/10 10:18:34;;;;;;;3.42;1.38;;;20.90;44.70;;;;;;5092016;28;20024;-42
2021/04/10 10:21:11;;;;;;;5.47;1.92;;;21.00;45.10;;;;;;5092587;28;20063;-41
2021/04/10 10:23:38;;;;;;;9.57;1.85;;;21.00;45.60;;;;;;5092603;28;20528;-45
2021/04/10 10:26:13;;;;;;;6.85;2.67;;;20.90;45.40;;;;;;5092275;28;20040;-45
2021/04/10 10:28:45;;;;;;;6.35;2.15;;;20.90;45.90;;;;;;5092604;28;20060;-44
2021/04/10 10:31:20;;;;;;;13.70;1.98;;;21.00;45.80;;;;;;5091813;28;20076;-41
2021/04/10 10:33:46;;;;;;;12.32;3.15;;;20.90;45.80;;;;;;5092201;28;20028;-43
2021/04/10 10:36:13;;;;;;;9.73;1.90;;;21.00;45.90;;;;;;5091043;28;20028;-46
2021/04/10 10:38:42;;;;;;;7.47;1.60;;;21.00;46.10;;;;;;5092101;28;20032;-44
2021/04/10 10:41:08;;;;;;;6.13;1.70;;;21.00;46.20;;;;;;5091196;28;20093;-46
2021/04/10 10:43:35;;;;;;;11.48;2.13;;;21.00;46.50;;;;;;5092416;28;20031;-39
2021/04/10 10:46:04;;;;;;;11.82;1.98;;;20.90;46.50;;;;;;5091141;28;20380;-42
2021/04/10 10:48:34;;;;;;;6.10;2.08;;;20.90;46.50;;;;;;5091369;28;20020;-41
2021/04/10 10:50:59;;;;;;;9.70;2.10;;;20.90;46.30;;;;;;5092380;28;20077;-41
2021/04/10 10:53:28;;;;;;;10.10;2.38;;;20.90;46.30;;;;;;5089857;28;20500;-42
2021/04/10 10:56:15;;;;;;;5.32;1.70;;;20.90;46.20;;;;;;5090584;28;20028;-41
2021/04/10 10:58:55;;;;;;;8.75;2.78;;;21.00;46.30;;;;;;5078668;28;20123;-42
2021/04/10 11:01:28;;;;;;;8.82;1.60;;;21.00;46.50;;;;;;5078847;28;20745;-42
2021/04/10 11:04:07;;;;;;;12.85;2.53;;;21.00;46.30;;;;;;5089730;28;20035;-39
2021/04/10 11:06:48;;;;;;;6.45;1.85;;;21.00;46.40;;;;;;5088045;28;20035;-40
2021/04/10 11:09:35;;;;;;;10.07;2.55;;;21.10;46.60;;;;;;5091958;28;20024;-41
2021/04/10 11:12:12;;;;;;;12.85;2.78;;;21.10;47.00;;;;;;5090963;28;20461;-39
2021/04/10 11:14:46;;;;;;;6.75;1.63;;;21.10;47.20;;;;;;5090644;28;20031;-42
2021/04/10 11:17:26;;;;;;;5.95;1.70;;;21.10;47.20;;;;;;5083254;28;20032;-43
2021/04/10 11:19:52;;;;;;;7.05;1.95;;;21.10;47.10;;;;;;5085537;28;20039;-41
2021/04/10 11:22:18;;;;;;;8.93;3.17;;;21.10;47.00;;;;;;5090283;28;20452;-41
2021/04/10 11:24:48;;;;;;;5.10;1.40;;;21.10;46.90;;;;;;5086785;28;20032;-39
2021/04/10 11:27:22;;;;;;;8.07;2.00;;;21.10;47.20;;;;;;5090508;28;20339;-37
2021/04/10 11:29:51;;;;;;;16.42;1.85;;;21.10;47.10;;;;;;5091895;28;20043;-38
2021/04/10 11:32:17;;;;;;;8.88;3.47;;;21.10;47.10;;;;;;5090178;28;20073;-42
2021/04/10 11:34:53;;;;;;;16.67;2.75;;;21.10;47.20;;;;;;5091015;28;20028;-41
2021/04/10 11:37:37;;;;;;;7.78;1.60;;;21.20;47.20;;;;;;5090679;28;20024;-40
2021/04/10 11:40:16;;;;;;;9.60;1.73;;;21.20;47.40;;;;;;5089724;28;20016;-40
2021/04/10 11:42:56;;;;;;;12.20;2.40;;;21.20;47.20;;;;;;5091492;28;20053;-46
2021/04/10 11:45:26;;;;;;;12.75;2.15;;;21.20;47.10;;;;;;5090780;28;20088;-47
2021/04/10 11:48:17;;;;;;;9.57;2.88;;;21.20;47.10;;;;;;5083698;28;20028;-42
2021/04/10 11:50:52;;;;;;;7.00;2.05;;;21.10;47.20;;;;;;5091201;28;20225;-44
2021/04/10 11:53:34;;;;;;;10.18;1.60;;;21.20;48.00;;;;;;5093764;28;20028;-47
2021/04/10 11:56:20;;;;;;;13.88;2.25;;;21.20;47.30;;;;;;5095437;28;20433;-42
2021/04/10 11:58:46;;;;;;;10.02;1.70;;;21.10;47.30;;;;;;5095245;28;20514;-41
2021/04/10 12:01:13;;;;;;;12.93;1.90;;;21.10;47.30;;;;;;5094724;28;20073;-49
2021/04/10 12:03:52;;;;;;;10.98;2.20;;;21.10;47.30;;;;;;5095658;28;20376;-44
2021/04/10 12:06:38;;;;;;;7.70;1.90;;;21.10;47.30;;;;;;5094240;28;20035;-45
2021/04/10 12:09:11;;;;;;;7.47;1.85;;;21.10;47.10;;;;;;5094156;28;20474;-40
2021/04/10 12:11:38;;;;;;;9.35;1.88;;;21.10;46.80;;;;;;5094134;28;20034;-43
2021/04/10 12:14:06;;;;;;;9.25;2.20;;;21.10;46.70;;;;;;5095465;28;20020;-43
2021/04/10 12:16:36;;;;;;;13.88;1.98;;;21.20;46.60;;;;;;5093537;28;20032;-43
2021/04/10 12:19:03;;;;;;;20.60;2.35;;;21.10;46.60;;;;;;5086199;28;20028;-42
2021/04/10 12:21:29;;;;;;;11.10;2.10;;;21.10;46.60;;;;;;5094449;28;20036;-44
2021/04/10 12:23:55;;;;;;;5.82;1.67;;;21.10;46.50;;;;;;5086622;28;20457;-40
2021/04/10 12:26:20;;;;;;;5.47;1.50;;;21.20;46.70;;;;;;5093400;28;20047;-48
2021/04/10 12:28:46;;;;;;;7.13;1.52;;;21.20;46.60;;;;;;5091729;28;20036;-42
2021/04/10 12:31:12;;;;;;;11.88;1.92;;;21.20;46.70;;;;;;5088816;28;20040;-46
2021/04/10 12:33:39;;;;;;;9.98;2.00;;;21.10;46.70;;;;;;5088546;28;20024;-42
2021/04/10 12:36:06;;;;;;;9.15;2.17;;;21.10;46.70;;;;;;5087973;28;20073;-42
2021/04/10 12:38:31;;;;;;;9.18;2.08;;;21.20;46.70;;;;;;5083914;28;20530;-39
2021/04/10 12:40:57;;;;;;;8.98;1.77;;;21.20;46.80;;;;;;5088737;28;20032;-47
2021/04/10 12:43:23;;;;;;;8.60;1.80;;;21.20;46.70;;;;;;5092308;28;20028;-45
2021/04/10 12:45:48;;;;;;;10.27;2.40;;;21.20;46.80;;;;;;5093190;28;20024;-45
2021/04/10 12:48:14;;;;;;;12.88;2.83;;;21.20;46.70;;;;;;5093566;28;20457;-52
2021/04/10 12:50:40;;;;;;;5.60;2.30;;;21.20;46.70;;;;;;5094688;28;20032;-43
2021/04/10 12:53:07;;;;;;;7.03;1.90;;;21.20;46.70;;;;;;5093745;28;20034;-43
2021/04/10 12:55:33;;;;;;;10.10;2.17;;;21.20;46.70;;;;;;5093690;28;20245;-44